Tiempo atmosférico en la estación meteorológica de Irurtzun, Navarra (455 m.)



Fecha
DESCASC
Temp. máxima en grados centígrados (hora)
DESCASC
Temp. mínima en grados centígrados (hora)
DESCASC
Temp. media en grados centígrados
DESCASC
Racha de viento máxima en m/sg (hora)
DESCASC
Velocidad máxima media en intervalos de 10 minutos(hora)
DESCASC
Precipitaciones diarias en mm
DESCASC
Precipitaciones de 00:00 a 06:00 en mm
DESCASC
Precipitaciones de 06:00 a 12:00 en mm
DESCASC
Precipitaciones de 12:00 a 18:00 en mm
DESCASC
Precipitaciones de 18:00 a 24:00 en mm
DESCASC
13-01-2021 6.9 (15:50) 4.2 (08:20) 5.5 7.5 (05:10) 3.89 (05:20) 0.4 0 0.4 0 0
12-01-2021 5.9 (14:30) 2.1 (01:10) 4 6.67 (01:50) 3.61 (19:00) 0 0 0 0 0
11-01-2021 3.5 (14:00) -0.1 (00:00) 1.7 12.78 (07:50) 5.83 (07:50) 0.6 0 0.6 0 0
10-01-2021 1.3 (15:00) -0.7 (00:00) 0.3 12.22 (09:20) 6.94 (09:20) 2.6 0 0.6 1.8 0.2
09-01-2021 0.2 (00:00) -0.9 (-00:0) -0.3 6.11 (14:40) 2.5 (16:10) 1 0 0 1 0
08-01-2021 3.3 (13:20) -2.9 (-00:0) 0.2 7.22 (15:00) 2.5 (05:00) 0 0 0 0 0
07-01-2021 4.2 (15:40) -6.6 (-00:0) -1.2 6.94 (16:00) 3.61 (16:40) 0 0 0 0 0
06-01-2021 5.7 (15:50) -3.9 (-00:0) 0.9 5.56 (14:10) 2.78 (14:10) 0.2 0 0.2 0 0
05-01-2021 2.7 (16:00) 0.4 (00:00) 1.6 4.44 (16:10) 2.22 (16:10) 6.8 0.6 2.4 3.8 0
04-01-2021 3.1 (12:50) 0 (00:00) 1.5 6.11 (14:50) 2.5 (20:30) 9.4 0 0.6 6.8 2
03-01-2021 4.9 (14:10) 0.7 (00:00) 2.8 7.22 (00:30) 3.33 (12:20) 1.4 0 0 1 0.4
02-01-2021 3.3 (14:40) 0.6 (00:00) 1.9 11.67 (10:10) 4.72 (11:00) 4.8 2.4 2.4 0 0
01-01-2021 6.8 (14:20) 1.1 (00:00) 4 7.78 (15:10) 3.33 (15:10) 2 0.8 0.2 0.2 0.8
31-12-2020 5.2 (15:10) 0.4 (00:00) 2.8 5.83 (15:30) 3.06 (13:20) 3.2 0 0 1.6 1.6
30-12-2020 4.3 (16:30) 0.3 (00:00) 2.3 7.22 (03:20) 3.33 (03:30) 15.4 8.8 4.2 2.2 0.2
29-12-2020 7.3 (15:00) 1.9 (00:00) 4.6 7.78 (01:30) 3.33 (01:30) 4.4 0.4 0.2 1.4 2.4
28-12-2020 5.6 (03:40) 2 (00:00) 3.8 10.56 (14:10) 3.61 (04:10) 18.4 6.2 2 7.2 3
27-12-2020 9.2 (21:20) 0.6 (00:00) 4.9 17.22 (21:20) 6.94 (21:20) 0.8 0 0 0 0.8
26-12-2020 5.7 (14:20) 2.4 (00:00) 4 10.28 (07:00) 4.17 (07:10) 0.8 0.8 0 0 0
25-12-2020 5.6 (00:00) 2 (00:00) 3.8 10.83 (10:20) 3.89 (03:40) 11.2 6.8 0.2 0.8 3.4
24-12-2020 9.7 (13:50) 5.6 (00:00) 7.6 7.22 (15:50) 3.61 (00:30) 10.4 0 0 0.2 10.2
23-12-2020 12.7 (15:00) 7.4 (05:40) 10 8.89 (20:10) 4.72 (21:40) 1.4 0 0 0.2 1.2
21-12-2020 9.7 (16:00) 6.6 (00:00) 8.1 5.28 (08:20) 2.78 (07:20) 4.2 1 3.2 0 0
20-12-2020 12.3 (15:00) 5 (00:00) 8.7 4.72 (23:59) 2.78 (23:59) 0 0 0 0 0
19-12-2020 11.4 (13:50) 8.4 (00:00) 9.9 10.83 (05:20) 6.39 (05:20) 7 0 1.8 0 5.2
18-12-2020 10.1 (15:50) 1.1 (00:00) 5.6 13.89 (17:20) 7.5 (15:10) 0 0 0 0 0
17-12-2020 14.1 (16:10) 2.3 (00:00) 8.2 5.28 (00:30) 1.67 (00:20) 0 0 0 0 0

Gráficas

Temp. máximas Temp. mínimas Temp. medias Precipitaciones Rachas de viento máximas Velocidades máximas media en intervalos de 10 minutos

Datos horarios

Fecha y hora oficial Temperatura (ºC) Velocidad del viento (km/h) Dirección del viento Racha (km/h) Dirección de racha Precipitación (mm) Presión (hPa) Tendencia (hPa) Humedad (%)
2021-01-15 23:00:00 6.3 8 Noroeste 19 Noroeste 0 -- -- 87
2021-01-15 22:00:00 6.5 11 Noroeste 26 Oeste 0 -- -- 86
2021-01-15 21:00:00 6.7 11 Noroeste 28 Noroeste 0.2 -- -- 81
2021-01-15 20:00:00 6.7 13 Noroeste 28 Noroeste 0 -- -- 84
2021-01-15 19:00:00 6.1 8 Oeste 18 Oeste 0.4 -- -- 89
2021-01-15 18:00:00 6.7 6 Noroeste 22 Oeste 0.4 -- -- 86
2021-01-15 17:00:00 7.4 6 Noroeste 29 Norte 0 -- -- 82
2021-01-15 16:00:00 7.5 10 Noroeste 30 Oeste 0 -- -- 82
2021-01-15 15:00:00 7.2 9 Noroeste 34 Norte 0.4 -- -- 87
2021-01-15 14:00:00 7.5 10 Noroeste 26 Norte 0.8 -- -- 87
2021-01-15 13:00:00 7.2 11 Noroeste 28 Oeste 0.6 -- -- 84
2021-01-15 12:00:00 7.7 10 Noroeste 29 Oeste 0 -- -- 80
2021-01-15 11:00:00 7.8 13 Noroeste 27 Oeste 0 -- -- 80
2021-01-15 10:00:00 6.8 10 Noroeste 23 Oeste 0.2 -- -- 87
2021-01-15 09:00:00 6.3 9 Noroeste 24 Oeste 0.2 -- -- 90
2021-01-15 08:00:00 6.5 8 Noroeste 22 Oeste 1.2 -- -- 90
2021-01-15 07:00:00 6.7 9 Noroeste 19 Noroeste 0.6 -- -- 90
2021-01-15 06:00:00 6.6 7 Noroeste 26 Oeste 0.8 -- -- 89
2021-01-15 05:00:00 6.4 12 Noroeste 23 Oeste 1 -- -- 93
2021-01-15 04:00:00 6.5 11 Oeste 21 Oeste 0.8 -- -- 91
2021-01-15 03:00:00 7.1 12 Noroeste 29 Oeste 0 -- -- 85
2021-01-15 02:00:00 7.3 15 Oeste 30 Oeste 0 -- -- 82
2021-01-15 01:00:00 7.4 12 Oeste 29 Oeste 0 -- -- 85
2021-01-15 00:00:00 7.9 15 Noroeste 29 Oeste 0.4 -- -- 84
2021-01-14 23:00:00 8 7 Noroeste 35 Oeste 0.2 -- -- 89
2021-01-14 22:00:00 8.2 12 Noroeste 23 Oeste 0.2 -- -- 90
2021-01-14 21:00:00 7.8 8 Noroeste 22 Oeste 0.4 -- -- 93
2021-01-14 20:00:00 7 10 Noroeste 21 Oeste 0.6 -- -- 94
2021-01-14 19:00:00 6.5 10 Noroeste 22 Oeste 0.8 -- -- 94
2021-01-14 18:00:00 6.1 11 Oeste 22 Oeste 0 -- -- 94
2021-01-14 17:00:00 6.6 8 Noroeste 22 Noroeste 0 -- -- 90
2021-01-14 16:00:00 7.5 12 Noroeste 27 Noroeste 0 -- -- 82
2021-01-14 15:00:00 7.9 11 Oeste 28 Oeste 0 -- -- 77
2021-01-14 14:00:00 7.8 10 Noroeste 24 Oeste 0 -- -- 77
2021-01-14 13:00:00 7.4 10 Noroeste 23 Noroeste 0 -- -- 79
2021-01-14 12:00:00 6.9 9 Oeste 25 Noroeste 0 -- -- 81
2021-01-14 11:00:00 6.6 4 Oeste 17 Noroeste 0 -- -- 81
2021-01-14 10:00:00 6.4 6 Noroeste 20 Noroeste 0 -- -- 82
2021-01-14 09:00:00 6.3 7 Noroeste 19 Oeste 0 -- -- 83
2021-01-14 08:00:00 6.1 7 Oeste 19 Sudoeste 0 -- -- 84
2021-01-14 07:00:00 6 10 Oeste 23 Oeste 0 -- -- 84
2021-01-14 06:00:00 6.3 12 Oeste 23 Oeste 0 -- -- 84
2021-01-14 05:00:00 6.4 9 Oeste 30 Sudoeste 0 -- -- 84
2021-01-14 04:00:00 6.5 10 Oeste 26 Sudoeste 0 -- -- 85
2021-01-14 03:00:00 6.6 9 Oeste 21 Oeste 0 -- -- 83
2021-01-14 02:00:00 6.5 9 Oeste 22 Oeste 0 -- -- 84
2021-01-14 01:00:00 6.4 12 Oeste 24 Oeste 0 -- -- 86
2021-01-14 00:00:00 6.2 9 Oeste 20 Oeste 0 -- -- 89
2021-01-13 23:00:00 6 9 Oeste 18 Sudoeste 0 -- -- 91
2021-01-13 22:00:00 6.1 8 Oeste 22 Oeste 0 -- -- 92
2021-01-13 21:00:00 6.1 9 Oeste 21 Oeste 0 -- -- 91
2021-01-13 20:00:00 6.1 8 Oeste 23 Noroeste 0 -- -- 91
2021-01-13 19:00:00 6.6 11 Oeste 26 Oeste 0 -- -- 88
2021-01-13 18:00:00 6.6 9 Oeste 23 Oeste 0 -- -- 90
2021-01-13 17:00:00 6.6 10 Oeste 23 Oeste 0 -- -- 92
2021-01-13 16:00:00 6.8 8 Oeste 22 Oeste 0 -- -- 90
2021-01-13 15:00:00 6.3 10 Oeste 20 Oeste 0 -- -- 93
2021-01-13 14:00:00 6.4 10 Oeste 24 Oeste 0 -- -- 91
2021-01-13 13:00:00 6.2 9 Oeste 23 Oeste 0 -- -- 92
2021-01-13 12:00:00 6.1 9 Oeste 16 Oeste 0 -- -- 93
2021-01-13 11:00:00 5.4 8 Oeste 18 Oeste 0 -- -- 94
2021-01-13 10:00:00 5.1 7 Oeste 18 Oeste 0.2 -- -- 95
2021-01-13 09:00:00 4.7 8 Oeste 17 Oeste 0 -- -- 95
2021-01-13 08:00:00 4.6 9 Oeste 19 Oeste 0.2 -- -- 94
2021-01-13 07:00:00 4.9 8 Oeste 21 Oeste 0 -- -- 93
2021-01-13 06:00:00 5.3 8 Oeste 27 Oeste 0 -- -- 89
2021-01-13 05:00:00 5.2 10 Oeste 22 Noroeste 0 -- -- 89
2021-01-13 04:00:00 5.4 8 Noroeste 15 Oeste 0 -- -- 87
2021-01-13 03:00:00 5.5 9 Noroeste 17 Oeste 0 -- -- 85
2021-01-13 02:00:00 5.6 6 Oeste 18 Oeste 0 -- -- 83
2021-01-13 01:00:00 5.6 8 Noroeste 18 Oeste 0 -- -- 83
2021-01-13 00:00:00 5.7 10 Oeste 19 Noroeste 0 -- -- 81
2021-01-12 23:00:00 5.7 9 Noroeste 24 Oeste 0 -- -- 80
2021-01-12 22:00:00 5.7 9 Noroeste 22 Oeste 0 -- -- 80
2021-01-12 21:00:00 5.7 7 Noroeste 17 Noroeste 0 -- -- 79
2021-01-12 20:00:00 5.6 6 Noroeste 19 Noroeste 0 -- -- 79
2021-01-12 19:00:00 5.8 13 Noroeste 19 Oeste 0 -- -- 77
2021-01-12 18:00:00 5.6 5 Norte 23 Oeste 0 -- -- 77
2021-01-12 17:00:00 5.8 12 Noroeste 22 Oeste 0 -- -- 77
2021-01-12 16:00:00 5.8 10 Noroeste 21 Noroeste 0 -- -- 77
2021-01-12 15:00:00 5.8 8 Oeste 18 Oeste 0 -- -- 77
2021-01-12 14:00:00 5.8 6 Noroeste 19 Noroeste 0 -- -- 76
2021-01-12 13:00:00 5.5 8 Noroeste 22 Oeste 0 -- -- 76
2021-01-12 12:00:00 5.3 4 Noroeste 15 Oeste 0 -- -- 77
2021-01-12 11:00:00 4.7 3 Oeste 13 Oeste 0 -- -- 79
2021-01-12 10:00:00 3.9 6 Oeste 18 Oeste 0 -- -- 81
2021-01-12 09:00:00 3.8 9 Oeste 21 Sudoeste 0 -- -- 80
2021-01-12 08:00:00 3.8 10 Oeste 23 Oeste 0 -- -- 79
2021-01-12 07:00:00 3.5 5 Noroeste 22 Sudoeste 0 -- -- 80
2021-01-12 06:00:00 3.5 6 Oeste 17 Oeste 0 -- -- 79
2021-01-12 05:00:00 3.7 10 Oeste 24 Oeste 0 -- -- 76
2021-01-12 04:00:00 3.2 6 Oeste 17 Sudoeste 0 -- -- 77
2021-01-12 03:00:00 3 6 Oeste 18 Noroeste 0 -- -- 78
2021-01-12 02:00:00 2.4 6 Oeste 24 Oeste 0 -- -- 79
2021-01-12 01:00:00 2.3 9 Oeste 22 Noroeste 0 -- -- 80
2021-01-12 00:00:00 2.5 12 Oeste 24 Oeste 0 -- -- 80
2021-01-11 23:00:00 2.1 8 Noroeste 23 Noroeste 0 -- -- 80
2021-01-11 22:00:00 2.4 9 Oeste 24 Oeste 0 -- -- 79
2021-01-11 21:00:00 2.5 11 Oeste 25 Oeste 0 -- -- 76
2021-01-11 20:00:00 1.7 6 Noroeste 21 Norte 0 -- -- 76
2021-01-11 19:00:00 1.5 8 Noroeste 27 Oeste 0 -- -- 75
2021-01-11 18:00:00 1.7 16 Oeste 33 Oeste 0 -- -- 70
2021-01-11 17:00:00 2.4 14 Oeste 32 Oeste 0 -- -- 66
2021-01-11 16:00:00 3.3 9 Oeste 29 Oeste 0 -- -- 65
2021-01-11 15:00:00 3.4 8 Noroeste 33 Oeste 0 -- -- 66
2021-01-11 14:00:00 3.5 13 Noroeste 35 Norte 0 -- -- 67
2021-01-11 13:00:00 2.9 11 Noroeste 37 Oeste 0 -- -- 71
2021-01-11 12:00:00 2.6 16 Oeste 37 Oeste 0.4 -- -- 72
2021-01-11 11:00:00 2.1 9 Noroeste 39 Oeste 0.2 -- -- 74
2021-01-11 10:00:00 1.7 11 Noroeste 33 Noroeste 0 -- -- 76
2021-01-11 09:00:00 1.2 12 Noroeste 35 Noroeste 0 -- -- 79
2021-01-11 08:00:00 1.2 15 Noroeste 46 Noroeste 0 -- -- 79
2021-01-11 07:00:00 0.8 7 Noroeste 34 Oeste 0 -- -- 80
2021-01-11 06:00:00 0.7 9 Noroeste 24 Oeste 0 -- -- 80
2021-01-11 05:00:00 0.9 9 Oeste 33 Oeste 0 -- -- 78
2021-01-11 04:00:00 1.3 12 Oeste 28 Oeste 0 -- -- 79
2021-01-11 03:00:00 1.2 12 Noroeste 24 Noroeste 0 -- -- 78
2021-01-11 02:00:00 0.6 4 Noroeste 24 Noroeste 0 -- -- 77
2021-01-11 01:00:00 -0.1 2 Oeste 28 Noroeste 0 -- -- 75
2021-01-11 00:00:00 -0.1 8 Noroeste 34 Noroeste 0 -- -- 73
2021-01-10 23:00:00 -0.1 8 Noroeste 28 Noroeste 0 -- -- 75
2021-01-10 22:00:00 0.3 10 Noroeste 27 Noroeste 0 -- -- 75
2021-01-10 21:00:00 0.6 14 Noroeste 35 Oeste 0 -- -- 76
2021-01-10 20:00:00 0.7 10 Noroeste 27 Oeste 0.2 -- -- 78
2021-01-10 19:00:00 0.8 11 Oeste 26 Oeste 0 -- -- 79
2021-01-10 18:00:00 0.8 7 Noroeste 15 Noroeste 0 -- -- 81
2021-01-10 17:00:00 0.9 4 Noroeste 16 Noroeste 0.2 -- -- 83
2021-01-10 16:00:00 1 6 Noroeste 21 Noroeste 0.4 -- -- 82
2021-01-10 15:00:00 1.3 8 Noroeste 23 Oeste 0.4 -- -- 81
2021-01-10 14:00:00 0.8 5 Noroeste 28 Oeste 0.2 -- -- 83
2021-01-10 13:00:00 1 10 Oeste 33 Sudoeste 0.6 -- -- 82
2021-01-10 12:00:00 1.1 14 Oeste 41 Oeste 0.6 -- -- 80
2021-01-10 11:00:00 0.9 17 Oeste 44 Oeste 0 -- -- 81
2021-01-10 10:00:00 0.5 15 Oeste 44 Oeste 0 -- -- 81
2021-01-10 09:00:00 0.3 19 Oeste 41 Oeste 0 -- -- 83
2021-01-10 08:00:00 0.3 15 Oeste 38 Oeste 0 -- -- 83
2021-01-10 07:00:00 0.4 18 Oeste 41 Oeste 0 -- -- 85
2021-01-10 06:00:00 0.5 20 Oeste 37 Oeste 0 -- -- 84
2021-01-10 05:00:00 0.1 17 Oeste 35 Oeste 0 -- -- 85
2021-01-10 04:00:00 -0.1 18 Oeste 35 Oeste 0 -- -- 87
2021-01-10 03:00:00 0 13 Oeste 28 Oeste 0 -- -- 94
2021-01-10 02:00:00 -0.2 9 Oeste 24 Oeste 0 -- -- 96
2021-01-10 01:00:00 -0.6 6 Oeste 21 Oeste 0 -- -- 97
2021-01-10 00:00:00 -0.7 9 Oeste 18 Oeste 0 -- -- 97
2021-01-09 23:00:00 -0.8 8 Oeste 18 Oeste 0 -- -- 96
2021-01-09 22:00:00 -0.7 7 Oeste 18 Oeste 0 -- -- 96
2021-01-09 21:00:00 -0.7 5 Oeste 17 Oeste 0 -- -- 96
2021-01-09 20:00:00 -0.8 4 Oeste 12 Oeste 0 -- -- 96
2021-01-09 19:00:00 -0.9 5 Noroeste 17 Sudoeste 0 -- -- 95
2021-01-09 18:00:00 -0.7 8 Oeste 18 Oeste 0 -- -- 94
2021-01-09 17:00:00 -0.6 8 Oeste 19 Oeste 0 -- -- 92
2021-01-09 16:00:00 -0.4 8 Oeste 18 Sudoeste 0.2 -- -- 91
2021-01-09 15:00:00 -0.2 5 Noroeste 22 Noroeste 0.2 -- -- 88
2021-01-09 14:00:00 -0.3 5 Noroeste 15 Sudoeste 0.4 -- -- 90
2021-01-09 13:00:00 -0.3 3 Norte 10 Noroeste 0.2 -- -- 89
2021-01-09 12:00:00 -0.5 5 Noroeste 16 Norte 0 -- -- 92
2021-01-09 11:00:00 -0.7 2 Noroeste 12 Oeste 0 -- -- 91
2021-01-09 10:00:00 -0.8 4 Oeste 17 Oeste 0 -- -- 87
2021-01-09 09:00:00 -0.1 4 Oeste 13 Oeste 0 -- -- 77
2021-01-09 08:00:00 0 3 Oeste 15 Oeste 0 -- -- 76
2021-01-09 07:00:00 -0.1 5 Oeste 13 Noroeste 0 -- -- 78
2021-01-09 06:00:00 -0.4 3 Noroeste 15 Oeste 0 -- -- 82
2021-01-09 05:00:00 -0.6 6 Oeste 14 Oeste 0 -- -- 86
2021-01-09 04:00:00 -0.9 2 Noroeste 6 Oeste 0 -- -- 87
2021-01-09 03:00:00 -0.8 0 Calma 8 Noroeste 0 -- -- 87
2021-01-09 02:00:00 -0.7 3 Noroeste 9 Sudoeste 0 -- -- 85
2021-01-09 01:00:00 -0.2 4 Oeste 15 Oeste 0 -- -- 81
2021-01-09 00:00:00 0.2 4 Oeste 13 Noroeste 0 -- -- 78
2021-01-08 23:00:00 0.2 3 Noroeste 16 Noroeste 0 -- -- 78
2021-01-08 22:00:00 0.3 8 Oeste 21 Oeste 0 -- -- 77
2021-01-08 21:00:00 0.4 3 Noroeste 10 Noroeste 0 -- -- 77
2021-01-08 20:00:00 0.7 4 Noroeste 19 Oeste 0 -- -- 75
2021-01-08 19:00:00 1.1 5 Oeste 15 Sudoeste 0 -- -- 72
2021-01-08 18:00:00 1.5 7 Oeste 19 Oeste 0 -- -- 71
2021-01-08 17:00:00 2.2 6 Oeste 20 Oeste 0 -- -- 69
2021-01-08 16:00:00 2.9 9 Norte 23 Oeste 0 -- -- 60
2021-01-08 15:00:00 3.1 9 Noroeste 26 Noroeste 0 -- -- 60
2021-01-08 14:00:00 3.3 5 Noroeste 22 Oeste 0 -- -- 63
2021-01-08 13:00:00 3 4 Sudoeste 19 Noroeste 0 -- -- 64
2021-01-08 12:00:00 1.7 6 Noroeste 21 Sur 0 -- -- 68
2021-01-08 11:00:00 0.6 3 Noroeste 20 Oeste 0 -- -- 73
2021-01-08 10:00:00 -0.4 4 Noroeste 17 Noroeste 0 -- -- 77
2021-01-08 09:00:00 -1.7 4 Noroeste 17 Oeste 0 -- -- 80
2021-01-08 08:00:00 -2.2 4 Noroeste 19 Sudoeste 0 -- -- 84
2021-01-08 07:00:00 -2.8 6 Oeste 18 Noroeste 0 -- -- 86
2021-01-08 06:00:00 -1.9 7 Noroeste 23 Sudoeste 0 -- -- 83
2021-01-08 05:00:00 -1.5 9 Oeste 19 Oeste 0 -- -- 81
2021-01-08 04:00:00 -0.9 8 Oeste 22 Noroeste 0 -- -- 78
2021-01-08 03:00:00 -0.6 7 Oeste 19 Sudoeste 0 -- -- 78
2021-01-08 02:00:00 -0.3 4 Noroeste 24 Oeste 0 -- -- 77
2021-01-08 01:00:00 0 8 Oeste 20 Oeste 0 -- -- 77
2021-01-08 00:00:00 -0.1 5 Noroeste 17 Oeste 0 -- -- 76
2021-01-07 23:00:00 0.3 6 Oeste 15 Sudoeste 0 -- -- 75
2021-01-07 22:00:00 0.6 3 Noroeste 14 Norte 0 -- -- 73
2021-01-07 21:00:00 0.8 5 Noroeste 13 Norte 0 -- -- 73
2021-01-07 20:00:00 1.1 4 Norte 10 Norte 0 -- -- 73
2021-01-07 19:00:00 1.3 3 Norte 10 Noroeste 0 -- -- 74
2021-01-07 18:00:00 1.6 10 Noroeste 20 Norte 0 -- -- 71
2021-01-07 17:00:00 1.9 10 Norte 24 Noroeste 0 -- -- 71
2021-01-07 16:00:00 2.7 10 Noroeste 25 Norte 0 -- -- 70
2021-01-07 15:00:00 4 7 Oeste 15 Sur 0 -- -- 69
2021-01-07 14:00:00 2.7 5 Sudoeste 10 Sudoeste 0 -- -- 76
2021-01-07 13:00:00 0 2 Noroeste 9 Sur 0 -- -- 86
2021-01-07 12:00:00 -1.3 0 Calma 4 Sudoeste 0 -- -- 90
2021-01-07 11:00:00 -4.2 0 Calma -- -- 0 -- -- 96
2021-01-07 10:00:00 -6.2 0 Calma 2 Sudoeste 0 -- -- 95
2021-01-07 09:00:00 -6.6 0 Calma 2 Sudoeste 0 -- -- 96
2021-01-07 08:00:00 -6.5 0 Calma 0 Calma 0 -- -- 96
2021-01-07 07:00:00 -6.3 0 Calma 0 Calma 0 -- -- 96
2021-01-07 06:00:00 -6 0 Calma 2 Sur 0 -- -- 96
2021-01-07 05:00:00 -5.6 0 Calma 0 Calma 0 -- -- 96
2021-01-07 04:00:00 -5.2 0 Calma 2 Sur 0 -- -- 97
2021-01-07 03:00:00 -4.9 0 Calma 0 Calma 0 -- -- 96
2021-01-07 02:00:00 -4.7 0 Calma 2 Sur 0 -- -- 96
2021-01-07 01:00:00 -4.3 0 Calma 2 Sudeste 0 -- -- 96
2021-01-07 00:00:00 -3.9 0 Calma 0 Calma 0 -- -- 95
2021-01-06 23:00:00 -3.2 0 Calma 0 Calma 0 -- -- 95
2021-01-06 22:00:00 -2.7 0 Calma 3 Sur 0 -- -- 95
2021-01-06 21:00:00 -2.2 0 Calma 2 Sudeste 0 -- -- 94
2021-01-06 20:00:00 -1.5 0 Calma 2 Norte 0 -- -- 92
2021-01-06 19:00:00 -0.2 0 Calma 3 Noroeste 0 -- -- 89
2021-01-06 18:00:00 1.4 0 Calma 7 Sudoeste 0 -- -- 84
2021-01-06 17:00:00 4.9 3 Oeste 10 Oeste 0 -- -- 64
2021-01-06 16:00:00 5.7 5 Sudoeste 15 Oeste 0 -- -- 63
2021-01-06 15:00:00 5.1 8 Oeste 20 Oeste 0 -- -- 65
2021-01-06 14:00:00 4.1 9 Oeste 17 Oeste 0 -- -- 72
2021-01-06 13:00:00 2.9 5 Oeste 10 Noroeste 0 -- -- 77
2021-01-06 12:00:00 1.2 7 Oeste 13 Sudoeste 0 -- -- 83
2021-01-06 11:00:00 -0.1 2 Oeste 5 Sudeste 0.2 -- -- 91
2021-01-06 10:00:00 -2.7 0 Calma 8 Noroeste 0 -- -- 97
2021-01-06 09:00:00 -3.5 0 Calma 4 Oeste 0 -- -- 96
2021-01-06 08:00:00 -2.8 0 Calma 8 Oeste 0 -- -- 95
2021-01-06 07:00:00 -2.3 2 Noroeste 8 Oeste 0 -- -- 95
2021-01-06 06:00:00 -1.6 0 Calma 4 Sudoeste 0 -- -- 94
2021-01-06 05:00:00 -0.9 3 Oeste 6 Oeste 0 -- -- 93
2021-01-06 04:00:00 -0.8 3 Noroeste 6 Noroeste 0 -- -- 90
2021-01-06 03:00:00 -0.2 0 Calma 11 Noroeste 0 -- -- 89
2021-01-06 02:00:00 0.6 2 Noroeste 14 Noroeste 0 -- -- 85
2021-01-06 01:00:00 0.9 5 Noroeste 19 Noroeste 0 -- -- 86
2021-01-06 00:00:00 1.3 7 Norte 14 Norte 0 -- -- 84
2021-01-05 23:00:00 1.2 4 Norte 15 Norte 0 -- -- 85
2021-01-05 22:00:00 1.5 3 Norte 13 Norte 0 -- -- 86
2021-01-05 21:00:00 1.6 3 Norte 7 Norte 0 -- -- 87
2021-01-05 20:00:00 1.7 4 Norte 6 Noroeste 0 -- -- 90
2021-01-05 19:00:00 1.8 0 Calma 14 Oeste 0 -- -- 89
2021-01-05 18:00:00 2.3 7 Oeste 15 Oeste 0 -- -- 83
2021-01-05 17:00:00 2.4 6 Noroeste 16 Norte 0 -- -- 82
2021-01-05 16:00:00 2.7 6 Noroeste 12 Oeste 0.4 -- -- 83
2021-01-05 15:00:00 2.3 4 Oeste 8 Oeste 0.6 -- -- 93
2021-01-05 14:00:00 2.4 4 Oeste 8 Oeste 1.4 -- -- 93
2021-01-05 13:00:00 2.1 0 Calma 5 Oeste 1.4 -- -- 96
2021-01-05 12:00:00 1.9 0 Calma 4 Sudoeste 1.2 -- -- 97
2021-01-05 11:00:00 1.2 0 Calma 3 Sudoeste 0.6 -- -- 98
2021-01-05 10:00:00 0.9 0 Calma 3 Noroeste 0.2 -- -- 98
2021-01-05 09:00:00 0.8 0 Calma 6 Norte 0.2 -- -- 98
2021-01-05 08:00:00 0.6 0 Calma 8 Oeste 0 -- -- 98
2021-01-05 07:00:00 0.5 0 Calma 4 Oeste 0.2 -- -- 98
2021-01-05 06:00:00 0.6 2 Oeste 6 Oeste 0 -- -- 98
2021-01-05 05:00:00 0.5 0 Calma 5 Oeste 0.2 -- -- 98
2021-01-05 04:00:00 0.5 0 Calma 4 Sudeste 0 -- -- 97
2021-01-05 03:00:00 0.5 2 Sur 3 Sudeste 0.2 -- -- 97
2021-01-05 02:00:00 0.5 0 Calma 7 Oeste 0 -- -- 96
2021-01-05 01:00:00 0.7 0 Calma 11 Oeste 0.2 -- -- 97
2021-01-05 00:00:00 0.6 4 Oeste 9 Sudoeste 0.2 -- -- 98
2021-01-04 23:00:00 0.5 0 Calma -- -- 0.2 -- -- 98
2021-01-04 22:00:00 0.6 0 Calma 14 Oeste 0.2 -- -- 97
2021-01-04 21:00:00 0.6 5 Oeste 19 Oeste 0.6 -- -- 96
2021-01-04 20:00:00 0.6 0 Calma 14 Oeste 0.4 -- -- 97
2021-01-04 19:00:00 0.7 6 Oeste 15 Oeste 0.4 -- -- 97
2021-01-04 18:00:00 1 4 Noroeste 12 Oeste 0.4 -- -- 96
2021-01-04 17:00:00 0.8 3 Oeste 15 Noroeste 0.6 -- -- 95
2021-01-04 16:00:00 1.5 3 Oeste 17 Oeste 1.2 -- -- 95
2021-01-04 15:00:00 1.9 5 Oeste 22 Oeste 1.2 -- -- 92
2021-01-04 14:00:00 2.1 0 Calma 10 Oeste 1.4 -- -- 92
2021-01-04 13:00:00 3 4 Sur 10 Sur 2 -- -- 87
2021-01-04 12:00:00 1.9 0 Calma 7 Sudeste 0.6 -- -- 95
2021-01-04 11:00:00 0.9 0 Calma 8 Sudeste 0 -- -- 98
2021-01-04 10:00:00 0.6 0 Calma -- -- 0 -- -- 99
2021-01-04 09:00:00 0.2 0 Calma -- -- 0 -- -- 99
2021-01-04 08:00:00 0.2 0 Calma 3 Sudeste 0 -- -- 99
2021-01-04 07:00:00 0.3 2 Sur 5 Sudeste 0 -- -- 98
2021-01-04 06:00:00 0.3 0 Calma 2 Sur 0 -- -- 98
2021-01-04 05:00:00 0.3 0 Calma 3 Sudeste 0 -- -- 98
2021-01-04 04:00:00 0.3 0 Calma 9 Nordeste 0 -- -- 98
2021-01-04 03:00:00 0.1 0 Calma 6 Norte 0 -- -- 98
2021-01-04 02:00:00 0.2 0 Calma 4 Sur 0 -- -- 98
2021-01-04 01:00:00 0.2 0 Calma 3 Nordeste 0 -- -- 98
2021-01-04 00:00:00 0.7 0 Calma 4 Noroeste 0 -- -- 97
2021-01-03 23:00:00 1 2 Sur 4 Este 0 -- -- 97
2021-01-03 22:00:00 1.2 0 Calma 4 Norte 0 -- -- 96
2021-01-03 21:00:00 1.2 0 Calma 4 Norte 0 -- -- 96
2021-01-03 20:00:00 1.1 0 Calma 10 Oeste 0 -- -- 94
2021-01-03 19:00:00 2 3 Noroeste 15 Noroeste 0.4 -- -- 93
2021-01-03 18:00:00 2.7 3 Oeste 13 Oeste 0.6 -- -- 91
2021-01-03 17:00:00 3.4 4 Sudoeste 14 Sudoeste 0.2 -- -- 90
2021-01-03 16:00:00 3.6 5 Oeste 19 Oeste 0 -- -- 88
2021-01-03 15:00:00 4.4 10 Oeste 20 Noroeste 0 -- -- 85
2021-01-03 14:00:00 4.8 8 Oeste 20 Sudoeste 0.2 -- -- 84
2021-01-03 13:00:00 4.3 10 Oeste 22 Oeste 0 -- -- 85
2021-01-03 12:00:00 4 7 Oeste 17 Oeste 0 -- -- 90
2021-01-03 11:00:00 2.8 6 Oeste 15 Oeste 0 -- -- 93
2021-01-03 10:00:00 1.6 3 Norte 8 Noroeste 0 -- -- 96
2021-01-03 09:00:00 0.8 0 Calma 2 Sur 0 -- -- 94
2021-01-03 08:00:00 0.8 0 Calma 3 Sudoeste 0 -- -- 93
2021-01-03 07:00:00 1 0 Calma 9 Oeste 0 -- -- 90
2021-01-03 06:00:00 1.4 2 Noroeste 13 Oeste 0 -- -- 87
2021-01-03 05:00:00 1.4 0 Calma 16 Oeste 0 -- -- 85
2021-01-03 04:00:00 1.6 8 Noroeste 21 Oeste 0 -- -- 83
2021-01-03 03:00:00 1.8 6 Oeste 21 Oeste 0 -- -- 82
2021-01-03 02:00:00 1.8 5 Noroeste 23 Noroeste 0 -- -- 82
2021-01-03 01:00:00 1.9 10 Oeste 26 Oeste 0 -- -- 80
2021-01-03 00:00:00 1.8 11 Oeste 26 Oeste 0 -- -- 80
2021-01-02 23:00:00 1.6 12 Oeste 26 Oeste 0 -- -- 80
2021-01-02 22:00:00 1.4 9 Oeste 23 Oeste 0 -- -- 83
2021-01-02 21:00:00 1.1 8 Noroeste 29 Sudoeste 0 -- -- 90
2021-01-02 20:00:00 1.3 9 Oeste 26 Oeste 0 -- -- 91
2021-01-02 19:00:00 2 6 Oeste 20 Noroeste 0 -- -- 85
2021-01-02 18:00:00 2.4 6 Noroeste 19 Noroeste 0 -- -- 81
2021-01-02 17:00:00 2.7 7 Noroeste 24 Oeste 0 -- -- 78
2021-01-02 16:00:00 3 10 Oeste 33 Norte 0 -- -- 76
2021-01-02 15:00:00 3.3 5 Norte 27 Noroeste 0 -- -- 72
2021-01-02 14:00:00 2.7 9 Norte 35 Norte 0 -- -- 70